createdAt,value
2018-06-04T00:02:31.581Z,95.00
2018-06-04T00:04:59.749Z,94.80
2018-06-04T00:07:27.896Z,94.80
2018-06-04T00:09:56.076Z,95.00
2018-06-04T00:12:24.245Z,95.00
2018-06-04T00:14:52.472Z,95.10
2018-06-04T00:17:20.640Z,95.00
2018-06-04T00:19:48.791Z,95.30
2018-06-04T00:22:16.960Z,95.00
2018-06-04T00:24:45.168Z,94.90
2018-06-04T00:27:13.332Z,94.80
2018-06-04T00:29:41.602Z,94.90
2018-06-04T00:32:09.760Z,95.50
2018-06-04T00:34:37.936Z,95.10
2018-06-04T00:37:06.128Z,95.10
2018-06-04T00:39:34.282Z,95.10
2018-06-04T00:42:02.463Z,95.00
2018-06-04T00:44:30.620Z,95.20
2018-06-04T00:46:58.777Z,95.50
2018-06-04T00:49:26.940Z,95.40
2018-06-04T00:51:55.098Z,95.60
2018-06-04T00:54:23.231Z,95.40
2018-06-04T00:56:51.376Z,95.60
2018-06-04T00:59:19.530Z,95.70
2018-06-04T01:01:47.666Z,95.60
2018-06-04T01:04:16.064Z,95.50
2018-06-04T01:06:44.196Z,95.70
2018-06-04T01:09:12.764Z,95.90
2018-06-04T01:11:42.092Z,96.20
2018-06-04T01:14:10.241Z,95.80
2018-06-04T01:16:38.387Z,96.00
2018-06-04T01:19:06.535Z,96.00
2018-06-04T01:21:34.676Z,95.90
2018-06-04T01:24:02.861Z,96.00
2018-06-04T01:26:31.008Z,96.10
2018-06-04T01:28:59.140Z,96.20
2018-06-04T01:31:27.336Z,96.10
2018-06-04T01:33:55.482Z,96.10
2018-06-04T01:36:23.649Z,96.30
2018-06-04T01:38:51.859Z,96.30
2018-06-04T01:41:20.002Z,96.20
2018-06-04T01:43:48.176Z,96.10
2018-06-04T01:46:16.399Z,96.30
2018-06-04T01:48:44.537Z,96.60
2018-06-04T01:51:12.775Z,96.40
2018-06-04T01:53:40.973Z,96.70
2018-06-04T01:56:09.119Z,96.10
2018-06-04T01:58:37.976Z,96.30
2018-06-04T02:01:06.175Z,96.10
2018-06-04T02:03:34.344Z,96.10
2018-06-04T02:06:03.081Z,96.10
2018-06-04T02:10:59.222Z,96.90
2018-06-04T02:13:27.397Z,96.30
2018-06-04T02:15:55.556Z,96.60
2018-06-04T02:18:23.729Z,96.10
2018-06-04T02:20:51.900Z,96.30
2018-06-04T02:23:20.072Z,96.40
2018-06-04T02:25:48.220Z,96.20
2018-06-04T02:28:16.398Z,96.30
2018-06-04T02:30:44.609Z,96.40
2018-06-04T02:33:12.884Z,96.50
2018-06-04T02:35:41.059Z,96.80
2018-06-04T02:38:09.232Z,96.90
2018-06-04T02:40:37.372Z,96.50
2018-06-04T02:43:05.684Z,96.60
2018-06-04T02:45:33.859Z,96.60
2018-06-04T02:48:02.032Z,96.60
2018-06-04T02:50:30.191Z,96.90
2018-06-04T02:52:58.357Z,97.00
2018-06-04T02:55:26.513Z,96.70
2018-06-04T02:57:54.686Z,96.50
2018-06-04T03:00:22.869Z,96.40
2018-06-04T03:02:51.009Z,96.60
2018-06-04T03:05:19.165Z,96.70
2018-06-04T03:10:15.327Z,96.40
2018-06-04T03:15:11.481Z,96.20
2018-06-04T03:17:39.633Z,96.30
2018-06-04T03:20:07.818Z,96.70
2018-06-04T03:22:35.983Z,96.60
2018-06-04T03:25:04.183Z,96.60
2018-06-04T03:27:32.334Z,96.70
2018-06-04T03:30:00.512Z,96.70
2018-06-04T03:32:28.677Z,97.10
2018-06-04T03:37:24.756Z,96.80
2018-06-04T03:39:52.901Z,96.40
2018-06-04T03:42:21.075Z,96.90
2018-06-04T03:47:17.152Z,96.60
2018-06-04T03:49:45.344Z,97.10
2018-06-04T03:52:13.496Z,97.10
2018-06-04T03:54:41.651Z,97.00
2018-06-04T03:57:09.854Z,97.00
2018-06-04T03:59:38.020Z,96.90
2018-06-04T04:02:06.792Z,96.90
2018-06-04T04:04:34.975Z,97.00
2018-06-04T04:07:03.127Z,97.40
2018-06-04T04:09:31.319Z,97.10
2018-06-04T04:14:27.387Z,97.00
2018-06-04T04:16:55.525Z,97.00
2018-06-04T04:19:23.689Z,96.90
2018-06-04T04:21:51.816Z,96.80
2018-06-04T04:24:20.102Z,96.80
2018-06-04T04:26:48.251Z,96.80
2018-06-04T04:29:16.373Z,97.00
2018-06-04T04:31:44.561Z,96.90
2018-06-04T04:34:13.122Z,97.00
2018-06-04T04:36:41.262Z,97.10
2018-06-04T04:39:09.545Z,97.00
2018-06-04T04:41:37.684Z,97.00
2018-06-04T04:44:05.845Z,97.00
2018-06-04T04:46:33.992Z,96.80
2018-06-04T04:49:02.151Z,96.60
2018-06-04T04:51:30.303Z,96.80
2018-06-04T04:53:58.443Z,96.80
2018-06-04T04:56:26.609Z,96.50
2018-06-04T04:58:54.805Z,96.40
2018-06-04T05:01:23.009Z,96.30
2018-06-04T05:03:51.160Z,96.30
2018-06-04T05:06:19.312Z,96.30
2018-06-04T05:11:16.543Z,96.50
2018-06-04T05:13:44.757Z,96.20
2018-06-04T05:16:13.208Z,96.20
2018-06-04T05:18:41.347Z,96.20
2018-06-04T05:21:09.508Z,96.30
2018-06-04T05:23:37.636Z,96.20
2018-06-04T05:26:05.888Z,96.00
2018-06-04T05:28:34.032Z,96.00
2018-06-04T05:31:02.166Z,96.00
2018-06-04T05:33:30.310Z,96.00
2018-06-04T05:35:58.471Z,95.70
2018-06-04T05:38:26.669Z,95.70
2018-06-04T05:40:55.044Z,95.70
2018-06-04T05:43:23.276Z,95.50
2018-06-04T05:48:19.369Z,95.60
2018-06-04T05:50:47.531Z,95.30
2018-06-04T05:53:15.716Z,95.10
2018-06-04T05:55:43.888Z,95.10
2018-06-04T05:58:12.046Z,95.10
2018-06-04T06:00:40.280Z,94.90
2018-06-04T06:03:08.403Z,94.80
2018-06-04T06:05:36.640Z,94.80
2018-06-04T06:08:04.954Z,94.70
2018-06-04T06:10:33.096Z,94.30
2018-06-04T06:13:01.279Z,94.30
2018-06-04T06:15:29.424Z,94.20
2018-06-04T06:17:59.813Z,94.20
2018-06-04T06:20:28.901Z,94.10
2018-06-04T06:22:57.503Z,93.60
2018-06-04T06:25:25.730Z,93.60
2018-06-04T06:27:54.644Z,93.50
2018-06-04T06:30:22.855Z,93.20
2018-06-04T06:32:51.020Z,93.00
2018-06-04T06:35:19.338Z,92.60
2018-06-04T06:37:48.376Z,92.10
2018-06-04T06:40:16.511Z,92.20
2018-06-04T06:42:44.680Z,91.20
2018-06-04T06:45:13.464Z,87.90
2018-06-04T06:47:41.622Z,79.90
2018-06-04T06:50:09.779Z,73.60
2018-06-04T06:52:37.931Z,65.30
2018-06-04T06:55:06.095Z,62.00
2018-06-04T06:57:34.239Z,57.50
2018-06-04T07:00:02.653Z,54.40
2018-06-04T07:04:59.656Z,49.90
2018-06-04T07:07:27.980Z,48.60
2018-06-04T07:09:56.216Z,47.60
2018-06-04T07:12:24.412Z,46.80
2018-06-04T07:14:52.555Z,46.00
2018-06-04T07:17:20.705Z,44.70
2018-06-04T07:19:48.883Z,43.90
2018-06-04T07:22:17.052Z,42.70
2018-06-04T07:24:45.193Z,42.40
2018-06-04T07:27:13.432Z,41.90
2018-06-04T07:29:41.568Z,41.00
2018-06-04T07:32:09.732Z,39.40
2018-06-04T07:34:37.893Z,39.20
2018-06-04T07:37:06.068Z,38.20
2018-06-04T07:39:34.228Z,37.10
2018-06-04T07:42:02.394Z,38.70
2018-06-04T07:44:30.736Z,38.30
2018-06-04T07:46:58.838Z,38.40
2018-06-04T07:49:27.074Z,38.80
2018-06-04T07:51:55.238Z,38.10
2018-06-04T07:54:23.400Z,38.10
2018-06-04T07:56:51.568Z,38.20
2018-06-04T07:59:19.725Z,37.90
2018-06-04T08:01:47.938Z,38.70
2018-06-04T08:04:16.130Z,37.80
2018-06-04T08:09:12.365Z,37.90
2018-06-04T08:11:40.601Z,38.60
2018-06-04T08:14:08.768Z,36.70
2018-06-04T08:16:36.936Z,36.80
2018-06-04T08:19:11.898Z,38.30
2018-06-04T08:24:40.341Z,36.20
2018-06-04T08:27:23.313Z,35.40
2018-06-04T08:29:51.504Z,35.60
2018-06-04T08:32:19.660Z,36.60
2018-06-04T08:34:47.823Z,36.00
2018-06-04T08:37:15.997Z,35.70
2018-06-04T08:39:44.222Z,35.70
2018-06-04T08:42:12.912Z,35.40
2018-06-04T08:44:41.036Z,34.90
2018-06-04T08:47:09.192Z,35.90
2018-06-04T08:49:37.354Z,35.00
2018-06-04T08:52:05.492Z,34.30
2018-06-04T08:54:33.785Z,35.60
2018-06-04T08:57:01.945Z,34.60
2018-06-04T08:59:30.105Z,35.30
2018-06-04T09:04:26.299Z,34.90
2018-06-04T09:06:54.440Z,35.20
2018-06-04T09:09:22.600Z,36.80
2018-06-04T09:11:50.799Z,37.00
2018-06-04T09:14:18.952Z,36.90
2018-06-04T09:16:47.116Z,37.30
2018-06-04T09:19:15.286Z,37.90
2018-06-04T09:21:43.499Z,38.00
2018-06-04T09:24:11.661Z,38.60
2018-06-04T09:26:40.021Z,39.50
2018-06-04T09:29:08.282Z,38.50
2018-06-04T09:31:36.379Z,37.80
2018-06-04T09:36:32.477Z,39.90
2018-06-04T09:39:00.648Z,37.10
2018-06-04T09:41:28.941Z,35.90
2018-06-04T09:43:57.144Z,34.60
2018-06-04T09:48:53.242Z,34.50
2018-06-04T09:51:21.408Z,33.80
2018-06-04T09:53:49.622Z,32.90
2018-06-04T09:56:17.756Z,32.90
2018-06-04T09:58:45.929Z,32.40
2018-06-04T10:01:14.205Z,31.20
2018-06-04T10:03:42.357Z,30.50
2018-06-04T10:06:10.564Z,32.00
2018-06-04T10:08:38.741Z,33.10
2018-06-04T10:11:06.911Z,33.90
2018-06-04T10:13:35.172Z,32.70
2018-06-04T10:16:03.325Z,32.80
2018-06-04T10:18:31.480Z,32.10
2018-06-04T10:23:41.782Z,32.40
2018-06-04T10:26:15.414Z,33.00
2018-06-04T10:28:45.126Z,32.90
2018-06-04T10:31:13.829Z,34.20
2018-06-04T10:33:42.060Z,35.80
2018-06-04T10:36:10.136Z,35.40
2018-06-04T10:38:39.202Z,35.50
2018-06-04T10:41:07.365Z,34.60
2018-06-04T10:43:36.155Z,31.20
2018-06-04T10:46:04.325Z,30.00
2018-06-04T10:48:33.216Z,31.30
2018-06-04T10:51:01.354Z,31.10
2018-06-04T10:53:29.523Z,30.80
2018-06-04T10:58:25.628Z,29.30
2018-06-04T11:03:21.729Z,29.90
2018-06-04T11:05:49.889Z,29.50
2018-06-04T11:08:18.073Z,30.40
2018-06-04T11:10:46.248Z,32.00
2018-06-04T11:13:14.467Z,31.40
2018-06-04T11:15:42.651Z,31.40
2018-06-04T11:18:10.801Z,32.10
2018-06-04T11:20:38.977Z,32.30
2018-06-04T11:23:07.150Z,33.70
2018-06-04T11:25:35.342Z,34.40
2018-06-04T11:28:03.553Z,35.40
2018-06-04T11:30:31.774Z,36.20
2018-06-04T11:32:59.852Z,38.30
2018-06-04T11:35:28.026Z,40.60
2018-06-04T11:37:56.167Z,39.50
2018-06-04T11:40:24.333Z,39.40
2018-06-04T11:42:52.460Z,40.20
2018-06-04T11:45:20.610Z,38.40
2018-06-04T11:47:48.785Z,38.50
2018-06-04T11:50:16.916Z,40.00
2018-06-04T11:52:45.050Z,38.10
2018-06-04T11:55:13.977Z,39.50
2018-06-04T11:57:42.691Z,39.20
2018-06-04T12:00:10.864Z,39.00
2018-06-04T12:02:38.998Z,38.10
2018-06-04T12:05:07.321Z,39.10
2018-06-04T12:07:42.108Z,39.10
2018-06-04T12:10:11.931Z,38.30
2018-06-04T12:12:40.137Z,37.40
2018-06-04T12:15:08.307Z,37.70
2018-06-04T12:17:36.668Z,37.30
2018-06-04T12:20:04.811Z,38.80
2018-06-04T12:22:32.947Z,37.90
2018-06-04T12:25:01.084Z,39.50
2018-06-04T12:27:29.311Z,39.50
2018-06-04T12:29:57.455Z,39.30
2018-06-04T12:32:25.600Z,38.80
2018-06-04T12:34:53.723Z,39.00
2018-06-04T12:37:21.858Z,38.00
2018-06-04T12:39:50.086Z,40.20
2018-06-04T12:42:18.216Z,40.50
2018-06-04T12:44:47.376Z,40.90
2018-06-04T12:47:15.564Z,41.70
2018-06-04T12:52:11.603Z,40.00
2018-06-04T12:54:39.750Z,40.30
2018-06-04T12:57:07.893Z,41.00
2018-06-04T12:59:36.031Z,40.00
2018-06-04T13:02:04.184Z,41.00
2018-06-04T13:04:32.399Z,40.50
2018-06-04T13:07:00.540Z,41.00
2018-06-04T13:09:29.588Z,40.90
2018-06-04T13:11:57.739Z,41.10
2018-06-04T13:14:26.021Z,42.40
2018-06-04T13:16:54.152Z,42.40
2018-06-04T13:19:22.334Z,42.10
2018-06-04T13:21:50.572Z,43.20
2018-06-04T13:24:18.704Z,44.10
2018-06-04T13:26:46.921Z,44.20
2018-06-04T13:29:15.283Z,44.10
2018-06-04T13:31:43.422Z,44.50
2018-06-04T13:34:11.576Z,43.60
2018-06-04T13:36:39.731Z,44.30
2018-06-04T13:39:09.327Z,44.70
2018-06-04T13:41:37.555Z,44.40
2018-06-04T13:44:05.741Z,44.80
2018-06-04T13:46:33.950Z,45.20
2018-06-04T13:49:02.131Z,45.10
2018-06-04T13:51:30.309Z,45.90
2018-06-04T13:53:58.462Z,46.10
2018-06-04T13:56:26.744Z,46.50
2018-06-04T13:58:54.898Z,46.60
2018-06-04T14:01:23.425Z,46.30
2018-06-04T14:03:51.939Z,47.20
2018-06-04T14:06:20.130Z,48.50
2018-06-04T14:08:48.316Z,47.50
2018-06-04T14:11:16.656Z,48.80
2018-06-04T14:13:44.807Z,49.10
2018-06-04T14:16:12.978Z,48.10
2018-06-04T14:18:41.116Z,47.20
2018-06-04T14:21:09.292Z,47.40
2018-06-04T14:23:37.472Z,47.50
2018-06-04T14:26:05.619Z,45.60
2018-06-04T14:28:33.772Z,46.00
2018-06-04T14:33:29.952Z,47.20
2018-06-04T14:35:58.083Z,47.30
2018-06-04T14:38:26.266Z,47.60
2018-06-04T14:40:54.452Z,47.50
2018-06-04T14:43:22.607Z,48.00
2018-06-04T14:45:50.758Z,47.00
2018-06-04T14:48:18.999Z,46.00
2018-06-04T14:50:47.142Z,46.80
2018-06-04T14:53:15.516Z,46.20
2018-06-04T14:55:43.667Z,46.60
2018-06-04T14:58:11.892Z,46.30
2018-06-04T15:00:40.076Z,45.10
2018-06-04T15:03:08.212Z,45.40
2018-06-04T15:05:36.488Z,46.30
2018-06-04T15:08:04.623Z,48.40
2018-06-04T15:10:32.862Z,47.60
2018-06-04T15:13:01.043Z,46.30
2018-06-04T15:15:29.192Z,46.90
2018-06-04T15:17:57.380Z,47.10
2018-06-04T15:20:25.532Z,47.40
2018-06-04T15:22:53.704Z,47.40
2018-06-04T15:25:21.844Z,47.80
2018-06-04T15:27:50.031Z,48.00
2018-06-04T15:30:18.167Z,47.70
2018-06-04T15:32:46.324Z,47.40
2018-06-04T15:37:43.369Z,48.60
2018-06-04T15:40:11.465Z,49.70
2018-06-04T15:42:39.600Z,49.50
2018-06-04T15:45:07.836Z,49.20
2018-06-04T15:47:35.958Z,49.30
2018-06-04T15:50:04.095Z,48.90
2018-06-04T15:52:32.229Z,49.10
2018-06-04T15:55:00.355Z,49.90
2018-06-04T15:57:28.575Z,49.70
2018-06-04T15:59:56.710Z,50.50
2018-06-04T16:02:24.859Z,51.10
2018-06-04T16:04:53.092Z,49.80
2018-06-04T16:07:21.263Z,48.80
2018-06-04T16:09:49.408Z,49.20
2018-06-04T16:12:17.551Z,49.70
2018-06-04T16:14:45.695Z,50.10
2018-06-04T16:17:14.627Z,50.00
2018-06-04T16:19:42.760Z,49.10
2018-06-04T16:22:10.980Z,49.00
2018-06-04T16:24:39.096Z,49.40
2018-06-04T16:27:07.271Z,48.70
2018-06-04T16:29:35.404Z,48.80
2018-06-04T16:32:03.561Z,48.80
2018-06-04T16:34:31.727Z,48.10
2018-06-04T16:36:59.930Z,48.30
2018-06-04T16:39:28.022Z,48.20
2018-06-04T16:41:56.213Z,49.60
2018-06-04T16:44:24.447Z,49.30
2018-06-04T16:46:52.592Z,49.10
2018-06-04T16:49:20.748Z,49.10
2018-06-04T16:51:48.880Z,49.80
2018-06-04T16:54:17.003Z,48.90
2018-06-04T16:56:45.169Z,49.00
2018-06-04T16:59:13.304Z,49.30
2018-06-04T17:01:41.472Z,48.90
2018-06-04T17:04:09.643Z,48.70
2018-06-04T17:06:37.787Z,49.30
2018-06-04T17:09:07.240Z,48.60
2018-06-04T17:11:35.385Z,47.80
2018-06-04T17:14:03.598Z,48.30
2018-06-04T17:16:32.387Z,49.00
2018-06-04T17:19:00.536Z,48.60
2018-06-04T17:21:28.659Z,49.40
2018-06-04T17:23:56.816Z,49.00
2018-06-04T17:26:25.015Z,49.20
2018-06-04T17:29:00.012Z,48.60
2018-06-04T17:33:57.001Z,49.80
2018-06-04T17:36:25.153Z,50.60
2018-06-04T17:38:53.739Z,50.90
2018-06-04T17:41:21.859Z,51.30
2018-06-04T17:43:50.020Z,51.20
2018-06-04T17:46:18.150Z,51.30
2018-06-04T17:48:46.749Z,51.20
2018-06-04T17:51:15.779Z,52.10
2018-06-04T17:53:43.918Z,50.60
2018-06-04T17:56:12.060Z,50.80
2018-06-04T17:58:40.209Z,50.90
2018-06-04T18:01:08.375Z,50.60
2018-06-04T18:03:36.500Z,51.10
2018-06-04T18:06:04.671Z,51.60
2018-06-04T18:08:32.827Z,51.30
2018-06-04T18:11:01.037Z,51.40
2018-06-04T18:13:29.184Z,51.40
2018-06-04T18:15:57.338Z,51.20
2018-06-04T18:18:25.467Z,51.30
2018-06-04T18:20:53.647Z,51.90
2018-06-04T18:23:21.783Z,52.30
2018-06-04T18:25:49.925Z,52.30
2018-06-04T18:28:18.076Z,52.30
2018-06-04T18:33:14.127Z,52.50
2018-06-04T18:38:10.167Z,52.90
2018-06-04T18:40:38.561Z,52.80
2018-06-04T18:43:06.971Z,53.10
2018-06-04T18:45:35.111Z,53.30
2018-06-04T18:48:03.246Z,53.70
2018-06-04T18:50:31.399Z,53.60
2018-06-04T18:52:59.531Z,54.10
2018-06-04T18:55:27.687Z,54.20
2018-06-04T18:57:55.859Z,54.40
2018-06-04T19:00:24.040Z,55.00
2018-06-04T19:02:52.300Z,54.80
2018-06-04T19:05:20.428Z,55.30
2018-06-04T19:07:48.560Z,55.20
2018-06-04T19:10:16.715Z,55.50
2018-06-04T19:12:44.841Z,55.80
2018-06-04T19:15:13.008Z,54.60
2018-06-04T19:17:41.141Z,56.00
2018-06-04T19:20:09.295Z,56.10
2018-06-04T19:22:38.405Z,56.30
2018-06-04T19:25:06.547Z,56.60
2018-06-04T19:27:34.708Z,57.00
2018-06-04T19:30:03.125Z,57.20
2018-06-04T19:32:31.262Z,57.70
2018-06-04T19:34:59.403Z,57.50
2018-06-04T19:37:27.544Z,57.60
2018-06-04T19:39:55.739Z,58.00
2018-06-04T19:42:23.890Z,58.30
2018-06-04T19:44:52.063Z,58.20
2018-06-04T19:47:20.227Z,58.50
2018-06-04T19:49:48.384Z,59.20
2018-06-04T19:52:16.522Z,59.80
2018-06-04T19:54:44.685Z,59.60
2018-06-04T19:57:12.851Z,60.00
2018-06-04T19:59:41.056Z,60.40
2018-06-04T20:02:15.087Z,61.50
2018-06-04T20:04:43.218Z,63.30
2018-06-04T20:07:11.411Z,63.50
2018-06-04T20:12:07.527Z,65.20
2018-06-04T20:14:35.722Z,64.80
2018-06-04T20:17:03.884Z,66.60
2018-06-04T20:19:32.042Z,67.90
2018-06-04T20:22:00.235Z,67.70
2018-06-04T20:24:28.493Z,68.90
2018-06-04T20:26:56.676Z,70.00
2018-06-04T20:29:24.853Z,71.20
2018-06-04T20:31:53.090Z,71.60
2018-06-04T20:34:21.256Z,72.00
2018-06-04T20:36:49.423Z,74.50
2018-06-04T20:39:17.584Z,75.90
2018-06-04T20:41:45.724Z,77.00
2018-06-04T20:44:13.917Z,77.60
2018-06-04T20:46:42.061Z,78.60
2018-06-04T20:49:10.192Z,79.80
2018-06-04T20:51:38.346Z,80.60
2018-06-04T20:54:06.507Z,81.50
2018-06-04T20:56:34.666Z,83.50
2018-06-04T20:59:02.816Z,83.10
2018-06-04T21:01:30.968Z,85.20
2018-06-04T21:03:59.121Z,85.20
2018-06-04T21:06:27.331Z,85.90
2018-06-04T21:08:55.530Z,87.00
2018-06-04T21:11:23.674Z,87.00
2018-06-04T21:13:51.853Z,87.70
2018-06-04T21:16:19.944Z,87.90
2018-06-04T21:18:48.072Z,89.00
2018-06-04T21:21:16.293Z,88.30
2018-06-04T21:23:44.431Z,89.00
2018-06-04T21:26:12.603Z,89.60
2018-06-04T21:28:40.731Z,90.70
2018-06-04T21:31:09.379Z,90.00
2018-06-04T21:33:37.545Z,90.10
2018-06-04T21:36:05.667Z,90.10
2018-06-04T21:38:33.823Z,90.50
2018-06-04T21:41:01.961Z,90.40
2018-06-04T21:43:30.170Z,90.70
2018-06-04T21:45:58.306Z,91.00
2018-06-04T21:48:26.435Z,91.30
2018-06-04T21:50:54.593Z,91.40
2018-06-04T21:53:22.712Z,91.40
2018-06-04T21:55:51.146Z,91.50
2018-06-04T21:58:19.276Z,91.10
2018-06-04T22:00:47.428Z,91.60
2018-06-04T22:03:16.355Z,91.70
2018-06-04T22:05:44.500Z,91.70
2018-06-04T22:08:12.627Z,91.80
2018-06-04T22:10:40.803Z,92.00
2018-06-04T22:13:09.840Z,92.30
2018-06-04T22:15:37.977Z,92.30
2018-06-04T22:18:06.125Z,92.30
2018-06-04T22:20:34.271Z,92.30
2018-06-04T22:23:03.110Z,92.50
2018-06-04T22:25:31.244Z,92.50
2018-06-04T22:27:59.377Z,92.50
2018-06-04T22:30:27.508Z,92.50
2018-06-04T22:32:55.911Z,92.40
2018-06-04T22:35:24.052Z,92.70
2018-06-04T22:37:52.187Z,93.30
2018-06-04T22:40:20.358Z,92.90
2018-06-04T22:42:48.533Z,92.90
2018-06-04T22:45:16.668Z,93.00
2018-06-04T22:47:44.823Z,93.10
2018-06-04T22:50:12.978Z,93.20
2018-06-04T22:52:41.119Z,93.10
2018-06-04T22:55:09.277Z,93.40
2018-06-04T22:57:37.426Z,93.20
2018-06-04T23:00:05.583Z,93.90
2018-06-04T23:05:01.689Z,93.70
2018-06-04T23:07:29.850Z,94.00
2018-06-04T23:09:58.025Z,94.40
2018-06-04T23:12:26.184Z,93.90
2018-06-04T23:14:54.354Z,94.00
2018-06-04T23:17:22.529Z,94.00
2018-06-04T23:19:50.684Z,94.20
2018-06-04T23:22:18.846Z,94.30
2018-06-04T23:24:46.982Z,94.10
2018-06-04T23:27:15.127Z,94.20
2018-06-04T23:29:43.386Z,94.20
2018-06-04T23:32:11.540Z,94.60
2018-06-04T23:34:39.692Z,94.50
2018-06-04T23:37:07.843Z,94.60
2018-06-04T23:39:36.053Z,94.90
2018-06-04T23:44:32.191Z,95.00
2018-06-04T23:47:00.349Z,94.80
2018-06-04T23:49:28.512Z,94.60
2018-06-04T23:51:56.687Z,94.80
2018-06-04T23:54:24.959Z,95.00
2018-06-04T23:56:53.112Z,94.90
2018-06-04T23:59:21.260Z,94.60
